sensor_id;sensor_type;location;lat;lon;timestamp;P1;durP1;ratioP1;P2;durP2;ratioP2
11151;SDS011;5630;49.342;10.802;2023-06-14T00:01:34;8.17;;;4.40;;
11151;SDS011;5630;49.342;10.802;2023-06-14T00:04:00;6.13;;;4.10;;
11151;SDS011;5630;49.342;10.802;2023-06-14T00:06:28;5.17;;;4.10;;
11151;SDS011;5630;49.342;10.802;2023-06-14T00:08:53;8.97;;;4.10;;
11151;SDS011;5630;49.342;10.802;2023-06-14T00:11:19;6.57;;;4.60;;
11151;SDS011;5630;49.342;10.802;2023-06-14T00:13:45;8.07;;;4.60;;
11151;SDS011;5630;49.342;10.802;2023-06-14T00:16:11;9.90;;;4.20;;
11151;SDS011;5630;49.342;10.802;2023-06-14T00:18:36;4.97;;;4.07;;
11151;SDS011;5630;49.342;10.802;2023-06-14T00:21:03;5.53;;;4.30;;
11151;SDS011;5630;49.342;10.802;2023-06-14T00:23:29;5.97;;;4.80;;
11151;SDS011;5630;49.342;10.802;2023-06-14T00:25:54;5.53;;;4.10;;
11151;SDS011;5630;49.342;10.802;2023-06-14T00:28:20;5.20;;;4.40;;
11151;SDS011;5630;49.342;10.802;2023-06-14T00:30:46;5.70;;;3.97;;
11151;SDS011;5630;49.342;10.802;2023-06-14T00:33:12;5.63;;;4.40;;
11151;SDS011;5630;49.342;10.802;2023-06-14T00:35:38;6.43;;;4.80;;
11151;SDS011;5630;49.342;10.802;2023-06-14T00:38:03;5.90;;;4.30;;
11151;SDS011;5630;49.342;10.802;2023-06-14T00:40:29;7.23;;;4.50;;
11151;SDS011;5630;49.342;10.802;2023-06-14T00:42:55;5.97;;;4.20;;
11151;SDS011;5630;49.342;10.802;2023-06-14T00:45:20;6.33;;;4.40;;
11151;SDS011;5630;49.342;10.802;2023-06-14T00:47:46;7.23;;;4.50;;
11151;SDS011;5630;49.342;10.802;2023-06-14T00:50:12;5.70;;;4.33;;
11151;SDS011;5630;49.342;10.802;2023-06-14T00:52:38;6.30;;;4.27;;
11151;SDS011;5630;49.342;10.802;2023-06-14T00:55:04;6.10;;;4.33;;
11151;SDS011;5630;49.342;10.802;2023-06-14T00:57:31;5.87;;;4.43;;
11151;SDS011;5630;49.342;10.802;2023-06-14T00:59:57;4.87;;;4.17;;
11151;SDS011;5630;49.342;10.802;2023-06-14T01:02:22;5.10;;;4.37;;
11151;SDS011;5630;49.342;10.802;2023-06-14T01:04:49;7.83;;;4.40;;
11151;SDS011;5630;49.342;10.802;2023-06-14T01:07:20;6.20;;;4.70;;
11151;SDS011;5630;49.342;10.802;2023-06-14T01:15:06;8.23;;;4.80;;
11151;SDS011;5630;49.342;10.802;2023-06-14T01:17:32;5.73;;;4.20;;
11151;SDS011;5630;49.342;10.802;2023-06-14T01:20:01;5.40;;;4.40;;
11151;SDS011;5630;49.342;10.802;2023-06-14T01:22:28;4.93;;;4.53;;
11151;SDS011;5630;49.342;10.802;2023-06-14T01:24:54;5.83;;;4.73;;
11151;SDS011;5630;49.342;10.802;2023-06-14T01:27:29;5.00;;;4.50;;
11151;SDS011;5630;49.342;10.802;2023-06-14T01:29:57;10.17;;;4.33;;
11151;SDS011;5630;49.342;10.802;2023-06-14T01:32:24;6.30;;;4.70;;
11151;SDS011;5630;49.342;10.802;2023-06-14T01:34:52;6.47;;;5.00;;
11151;SDS011;5630;49.342;10.802;2023-06-14T01:37:17;7.63;;;5.07;;
11151;SDS011;5630;49.342;10.802;2023-06-14T01:39:44;6.27;;;4.73;;
11151;SDS011;5630;49.342;10.802;2023-06-14T01:42:10;8.27;;;4.70;;
11151;SDS011;5630;49.342;10.802;2023-06-14T01:44:37;6.73;;;5.10;;
11151;SDS011;5630;49.342;10.802;2023-06-14T01:47:05;5.60;;;4.77;;
11151;SDS011;5630;49.342;10.802;2023-06-14T01:49:33;5.37;;;4.37;;
11151;SDS011;5630;49.342;10.802;2023-06-14T01:51:59;7.10;;;4.70;;
11151;SDS011;5630;49.342;10.802;2023-06-14T01:54:25;5.30;;;4.50;;
11151;SDS011;5630;49.342;10.802;2023-06-14T01:56:52;7.17;;;4.83;;
11151;SDS011;5630;49.342;10.802;2023-06-14T01:59:18;5.03;;;4.53;;
11151;SDS011;5630;49.342;10.802;2023-06-14T02:01:43;5.27;;;4.77;;
11151;SDS011;5630;49.342;10.802;2023-06-14T02:04:11;6.83;;;5.10;;
11151;SDS011;5630;49.342;10.802;2023-06-14T02:06:36;6.50;;;4.83;;
11151;SDS011;5630;49.342;10.802;2023-06-14T02:09:02;5.07;;;4.57;;
11151;SDS011;5630;49.342;10.802;2023-06-14T02:11:28;6.17;;;5.00;;
11151;SDS011;5630;49.342;10.802;2023-06-14T02:13:54;9.77;;;5.13;;
11151;SDS011;5630;49.342;10.802;2023-06-14T02:16:20;5.10;;;4.60;;
11151;SDS011;5630;49.342;10.802;2023-06-14T02:18:46;4.87;;;4.37;;
11151;SDS011;5630;49.342;10.802;2023-06-14T02:21:13;8.00;;;5.10;;
11151;SDS011;5630;49.342;10.802;2023-06-14T02:23:39;10.23;;;5.10;;
11151;SDS011;5630;49.342;10.802;2023-06-14T02:26:05;9.20;;;4.77;;
11151;SDS011;5630;49.342;10.802;2023-06-14T02:28:30;5.27;;;4.77;;
11151;SDS011;5630;49.342;10.802;2023-06-14T02:30:56;8.27;;;5.20;;
11151;SDS011;5630;49.342;10.802;2023-06-14T02:33:21;8.43;;;5.13;;
11151;SDS011;5630;49.342;10.802;2023-06-14T02:35:47;7.40;;;5.23;;
11151;SDS011;5630;49.342;10.802;2023-06-14T02:38:13;5.93;;;5.30;;
11151;SDS011;5630;49.342;10.802;2023-06-14T02:40:38;6.77;;;4.77;;
11151;SDS011;5630;49.342;10.802;2023-06-14T02:43:05;10.20;;;5.13;;
11151;SDS011;5630;49.342;10.802;2023-06-14T02:45:31;6.47;;;4.63;;
11151;SDS011;5630;49.342;10.802;2023-06-14T02:47:56;7.00;;;4.83;;
11151;SDS011;5630;49.342;10.802;2023-06-14T02:50:22;5.80;;;5.00;;
11151;SDS011;5630;49.342;10.802;2023-06-14T02:52:48;5.93;;;4.93;;
11151;SDS011;5630;49.342;10.802;2023-06-14T02:55:14;5.50;;;4.80;;
11151;SDS011;5630;49.342;10.802;2023-06-14T02:57:39;7.80;;;4.80;;
11151;SDS011;5630;49.342;10.802;2023-06-14T03:00:05;5.70;;;4.70;;
11151;SDS011;5630;49.342;10.802;2023-06-14T03:02:34;8.97;;;5.40;;
11151;SDS011;5630;49.342;10.802;2023-06-14T03:05:00;6.47;;;4.70;;
11151;SDS011;5630;49.342;10.802;2023-06-14T03:07:27;5.93;;;4.80;;
11151;SDS011;5630;49.342;10.802;2023-06-14T03:09:54;5.60;;;5.03;;
11151;SDS011;5630;49.342;10.802;2023-06-14T03:12:20;5.93;;;4.83;;
11151;SDS011;5630;49.342;10.802;2023-06-14T03:14:46;6.97;;;5.00;;
11151;SDS011;5630;49.342;10.802;2023-06-14T03:17:11;6.93;;;5.13;;
11151;SDS011;5630;49.342;10.802;2023-06-14T03:19:37;7.10;;;4.97;;
11151;SDS011;5630;49.342;10.802;2023-06-14T03:22:03;5.93;;;5.23;;
11151;SDS011;5630;49.342;10.802;2023-06-14T03:24:28;6.17;;;5.30;;
11151;SDS011;5630;49.342;10.802;2023-06-14T03:26:54;5.47;;;4.73;;
11151;SDS011;5630;49.342;10.802;2023-06-14T03:29:20;6.30;;;5.10;;
11151;SDS011;5630;49.342;10.802;2023-06-14T03:32:01;6.83;;;4.63;;
11151;SDS011;5630;49.342;10.802;2023-06-14T03:34:28;6.87;;;5.13;;
11151;SDS011;5630;49.342;10.802;2023-06-14T03:36:53;5.20;;;4.67;;
11151;SDS011;5630;49.342;10.802;2023-06-14T03:39:19;7.40;;;4.80;;
11151;SDS011;5630;49.342;10.802;2023-06-14T03:41:45;6.80;;;4.70;;
11151;SDS011;5630;49.342;10.802;2023-06-14T03:44:11;7.93;;;4.70;;
11151;SDS011;5630;49.342;10.802;2023-06-14T03:46:38;6.87;;;4.50;;
11151;SDS011;5630;49.342;10.802;2023-06-14T03:49:04;7.00;;;3.90;;
11151;SDS011;5630;49.342;10.802;2023-06-14T03:51:30;6.37;;;4.40;;
11151;SDS011;5630;49.342;10.802;2023-06-14T03:53:55;6.93;;;4.43;;
11151;SDS011;5630;49.342;10.802;2023-06-14T03:56:21;7.80;;;5.00;;
11151;SDS011;5630;49.342;10.802;2023-06-14T03:58:46;5.20;;;4.53;;
11151;SDS011;5630;49.342;10.802;2023-06-14T04:01:12;7.13;;;4.83;;
11151;SDS011;5630;49.342;10.802;2023-06-14T04:03:38;5.93;;;4.80;;
11151;SDS011;5630;49.342;10.802;2023-06-14T04:06:05;6.27;;;4.60;;
11151;SDS011;5630;49.342;10.802;2023-06-14T04:08:31;7.23;;;4.40;;
11151;SDS011;5630;49.342;10.802;2023-06-14T04:10:57;9.33;;;4.53;;
11151;SDS011;5630;49.342;10.802;2023-06-14T04:13:22;8.50;;;4.97;;
11151;SDS011;5630;49.342;10.802;2023-06-14T04:15:48;8.57;;;4.33;;
11151;SDS011;5630;49.342;10.802;2023-06-14T04:18:13;7.07;;;5.37;;
11151;SDS011;5630;49.342;10.802;2023-06-14T04:20:39;5.40;;;4.13;;
11151;SDS011;5630;49.342;10.802;2023-06-14T04:23:15;7.80;;;4.90;;
11151;SDS011;5630;49.342;10.802;2023-06-14T04:25:43;7.30;;;4.90;;
11151;SDS011;5630;49.342;10.802;2023-06-14T04:28:11;7.83;;;4.80;;
11151;SDS011;5630;49.342;10.802;2023-06-14T04:30:37;6.57;;;4.60;;
11151;SDS011;5630;49.342;10.802;2023-06-14T04:33:04;5.00;;;4.50;;
11151;SDS011;5630;49.342;10.802;2023-06-14T04:35:30;7.27;;;4.57;;
11151;SDS011;5630;49.342;10.802;2023-06-14T04:37:57;6.23;;;4.47;;
11151;SDS011;5630;49.342;10.802;2023-06-14T04:40:24;4.83;;;4.33;;
11151;SDS011;5630;49.342;10.802;2023-06-14T04:42:50;5.50;;;4.37;;
11151;SDS011;5630;49.342;10.802;2023-06-14T04:45:16;8.23;;;4.43;;
11151;SDS011;5630;49.342;10.802;2023-06-14T04:47:42;7.23;;;4.30;;
11151;SDS011;5630;49.342;10.802;2023-06-14T04:50:09;6.07;;;4.30;;
11151;SDS011;5630;49.342;10.802;2023-06-14T04:52:36;5.03;;;4.50;;
11151;SDS011;5630;49.342;10.802;2023-06-14T04:55:02;8.47;;;4.83;;
11151;SDS011;5630;49.342;10.802;2023-06-14T04:57:28;5.30;;;4.80;;
11151;SDS011;5630;49.342;10.802;2023-06-14T04:59:54;7.20;;;4.50;;
11151;SDS011;5630;49.342;10.802;2023-06-14T05:02:23;5.00;;;4.43;;
11151;SDS011;5630;49.342;10.802;2023-06-14T05:04:50;7.50;;;5.10;;
11151;SDS011;5630;49.342;10.802;2023-06-14T05:07:16;6.10;;;4.97;;
11151;SDS011;5630;49.342;10.802;2023-06-14T05:09:41;5.53;;;3.30;;
11151;SDS011;5630;49.342;10.802;2023-06-14T05:12:07;6.17;;;3.50;;
11151;SDS011;5630;49.342;10.802;2023-06-14T05:14:33;4.07;;;3.20;;
11151;SDS011;5630;49.342;10.802;2023-06-14T05:16:59;5.10;;;3.83;;
11151;SDS011;5630;49.342;10.802;2023-06-14T05:19:25;5.43;;;3.80;;
11151;SDS011;5630;49.342;10.802;2023-06-14T05:21:51;6.20;;;4.03;;
11151;SDS011;5630;49.342;10.802;2023-06-14T05:24:17;8.70;;;4.57;;
11151;SDS011;5630;49.342;10.802;2023-06-14T05:26:43;6.00;;;4.50;;
11151;SDS011;5630;49.342;10.802;2023-06-14T05:29:09;4.10;;;3.70;;
11151;SDS011;5630;49.342;10.802;2023-06-14T05:31:34;6.20;;;4.30;;
11151;SDS011;5630;49.342;10.802;2023-06-14T05:34:00;8.00;;;4.30;;
11151;SDS011;5630;49.342;10.802;2023-06-14T05:36:26;4.83;;;4.17;;
11151;SDS011;5630;49.342;10.802;2023-06-14T05:38:52;8.93;;;4.30;;
11151;SDS011;5630;49.342;10.802;2023-06-14T05:41:24;5.70;;;4.47;;
11151;SDS011;5630;49.342;10.802;2023-06-14T05:43:56;4.73;;;4.23;;
11151;SDS011;5630;49.342;10.802;2023-06-14T05:46:22;5.93;;;4.67;;
11151;SDS011;5630;49.342;10.802;2023-06-14T05:48:50;6.40;;;4.20;;
11151;SDS011;5630;49.342;10.802;2023-06-14T05:51:17;4.50;;;4.10;;
11151;SDS011;5630;49.342;10.802;2023-06-14T05:53:46;5.00;;;4.27;;
11151;SDS011;5630;49.342;10.802;2023-06-14T05:56:12;10.13;;;4.60;;
11151;SDS011;5630;49.342;10.802;2023-06-14T05:58:38;6.37;;;4.40;;
11151;SDS011;5630;49.342;10.802;2023-06-14T06:01:03;10.43;;;4.50;;
11151;SDS011;5630;49.342;10.802;2023-06-14T06:03:29;5.93;;;4.43;;
11151;SDS011;5630;49.342;10.802;2023-06-14T06:05:54;6.27;;;4.17;;
11151;SDS011;5630;49.342;10.802;2023-06-14T06:08:20;5.30;;;4.70;;
11151;SDS011;5630;49.342;10.802;2023-06-14T06:10:46;5.63;;;4.43;;
11151;SDS011;5630;49.342;10.802;2023-06-14T06:13:12;5.97;;;3.93;;
11151;SDS011;5630;49.342;10.802;2023-06-14T06:15:37;6.20;;;4.40;;
11151;SDS011;5630;49.342;10.802;2023-06-14T06:18:03;4.33;;;3.93;;
11151;SDS011;5630;49.342;10.802;2023-06-14T06:20:29;5.40;;;4.30;;
11151;SDS011;5630;49.342;10.802;2023-06-14T06:22:56;8.10;;;4.23;;
11151;SDS011;5630;49.342;10.802;2023-06-14T06:25:22;5.63;;;4.50;;
11151;SDS011;5630;49.342;10.802;2023-06-14T06:27:50;4.70;;;4.10;;
11151;SDS011;5630;49.342;10.802;2023-06-14T06:30:17;4.40;;;4.00;;
11151;SDS011;5630;49.342;10.802;2023-06-14T06:32:43;8.00;;;4.60;;
11151;SDS011;5630;49.342;10.802;2023-06-14T06:35:08;4.87;;;4.33;;
11151;SDS011;5630;49.342;10.802;2023-06-14T06:37:36;5.17;;;4.67;;
11151;SDS011;5630;49.342;10.802;2023-06-14T06:40:01;8.17;;;4.10;;
11151;SDS011;5630;49.342;10.802;2023-06-14T06:42:28;6.90;;;4.13;;
11151;SDS011;5630;49.342;10.802;2023-06-14T06:44:54;4.57;;;4.00;;
11151;SDS011;5630;49.342;10.802;2023-06-14T06:47:20;6.83;;;4.80;;
11151;SDS011;5630;49.342;10.802;2023-06-14T06:49:45;8.40;;;4.87;;
11151;SDS011;5630;49.342;10.802;2023-06-14T06:52:11;4.43;;;4.00;;
11151;SDS011;5630;49.342;10.802;2023-06-14T06:54:36;4.53;;;4.10;;
11151;SDS011;5630;49.342;10.802;2023-06-14T06:57:02;9.30;;;4.40;;
11151;SDS011;5630;49.342;10.802;2023-06-14T06:59:28;6.87;;;4.27;;
11151;SDS011;5630;49.342;10.802;2023-06-14T07:01:53;5.50;;;4.13;;
11151;SDS011;5630;49.342;10.802;2023-06-14T07:04:19;4.57;;;4.17;;
11151;SDS011;5630;49.342;10.802;2023-06-14T07:06:45;7.87;;;4.50;;
11151;SDS011;5630;49.342;10.802;2023-06-14T07:09:12;5.60;;;4.27;;
11151;SDS011;5630;49.342;10.802;2023-06-14T07:11:39;4.53;;;3.93;;
11151;SDS011;5630;49.342;10.802;2023-06-14T07:14:05;6.87;;;4.00;;
11151;SDS011;5630;49.342;10.802;2023-06-14T07:16:32;6.43;;;4.30;;
11151;SDS011;5630;49.342;10.802;2023-06-14T07:18:57;4.77;;;4.23;;
11151;SDS011;5630;49.342;10.802;2023-06-14T07:21:23;5.87;;;4.40;;
11151;SDS011;5630;49.342;10.802;2023-06-14T07:23:50;4.80;;;4.30;;
11151;SDS011;5630;49.342;10.802;2023-06-14T07:26:19;5.27;;;4.00;;
11151;SDS011;5630;49.342;10.802;2023-06-14T07:28:45;7.60;;;4.67;;
11151;SDS011;5630;49.342;10.802;2023-06-14T07:31:12;5.27;;;4.07;;
11151;SDS011;5630;49.342;10.802;2023-06-14T07:33:38;5.10;;;4.13;;
11151;SDS011;5630;49.342;10.802;2023-06-14T07:36:04;8.13;;;4.00;;
11151;SDS011;5630;49.342;10.802;2023-06-14T07:38:30;5.77;;;4.07;;
11151;SDS011;5630;49.342;10.802;2023-06-14T07:40:55;8.43;;;4.00;;
11151;SDS011;5630;49.342;10.802;2023-06-14T07:43:21;7.80;;;4.57;;
11151;SDS011;5630;49.342;10.802;2023-06-14T07:45:46;5.63;;;4.33;;
11151;SDS011;5630;49.342;10.802;2023-06-14T07:48:12;5.53;;;3.90;;
11151;SDS011;5630;49.342;10.802;2023-06-14T07:50:38;6.97;;;3.90;;
11151;SDS011;5630;49.342;10.802;2023-06-14T07:53:03;5.93;;;4.23;;
11151;SDS011;5630;49.342;10.802;2023-06-14T07:55:29;6.97;;;4.07;;
11151;SDS011;5630;49.342;10.802;2023-06-14T07:57:55;5.47;;;4.20;;
11151;SDS011;5630;49.342;10.802;2023-06-14T08:00:21;6.57;;;4.27;;
11151;SDS011;5630;49.342;10.802;2023-06-14T08:02:46;5.43;;;3.90;;
11151;SDS011;5630;49.342;10.802;2023-06-14T08:05:12;4.87;;;3.77;;
11151;SDS011;5630;49.342;10.802;2023-06-14T08:07:38;6.30;;;4.20;;
11151;SDS011;5630;49.342;10.802;2023-06-14T08:10:05;4.43;;;3.80;;
11151;SDS011;5630;49.342;10.802;2023-06-14T08:12:31;7.70;;;3.90;;
11151;SDS011;5630;49.342;10.802;2023-06-14T08:14:58;4.30;;;3.90;;
11151;SDS011;5630;49.342;10.802;2023-06-14T08:17:24;6.13;;;4.03;;
11151;SDS011;5630;49.342;10.802;2023-06-14T08:19:50;6.30;;;3.80;;
11151;SDS011;5630;49.342;10.802;2023-06-14T08:22:15;5.70;;;3.90;;
11151;SDS011;5630;49.342;10.802;2023-06-14T08:24:43;5.63;;;3.77;;
11151;SDS011;5630;49.342;10.802;2023-06-14T08:27:09;7.70;;;3.67;;
11151;SDS011;5630;49.342;10.802;2023-06-14T08:29:34;5.33;;;3.90;;
11151;SDS011;5630;49.342;10.802;2023-06-14T08:32:00;6.90;;;4.00;;
11151;SDS011;5630;49.342;10.802;2023-06-14T08:34:26;7.20;;;3.77;;
11151;SDS011;5630;49.342;10.802;2023-06-14T08:36:52;7.40;;;3.70;;
11151;SDS011;5630;49.342;10.802;2023-06-14T08:39:18;7.30;;;4.17;;
11151;SDS011;5630;49.342;10.802;2023-06-14T08:41:46;4.43;;;3.80;;
11151;SDS011;5630;49.342;10.802;2023-06-14T08:44:16;4.53;;;3.20;;
11151;SDS011;5630;49.342;10.802;2023-06-14T08:46:42;5.30;;;3.47;;
11151;SDS011;5630;49.342;10.802;2023-06-14T08:49:08;6.77;;;4.10;;
11151;SDS011;5630;49.342;10.802;2023-06-14T08:51:37;4.57;;;3.50;;
11151;SDS011;5630;49.342;10.802;2023-06-14T08:54:02;5.27;;;3.60;;
11151;SDS011;5630;49.342;10.802;2023-06-14T08:56:29;6.30;;;3.43;;
11151;SDS011;5630;49.342;10.802;2023-06-14T08:58:57;6.63;;;3.70;;
11151;SDS011;5630;49.342;10.802;2023-06-14T09:01:26;4.47;;;3.33;;
11151;SDS011;5630;49.342;10.802;2023-06-14T09:03:52;6.30;;;3.70;;
11151;SDS011;5630;49.342;10.802;2023-06-14T09:06:20;6.07;;;3.53;;
11151;SDS011;5630;49.342;10.802;2023-06-14T09:08:48;4.13;;;3.50;;
11151;SDS011;5630;49.342;10.802;2023-06-14T09:11:15;6.67;;;3.60;;
11151;SDS011;5630;49.342;10.802;2023-06-14T09:13:43;6.00;;;3.80;;
11151;SDS011;5630;49.342;10.802;2023-06-14T09:16:10;5.60;;;3.50;;
11151;SDS011;5630;49.342;10.802;2023-06-14T09:18:39;6.00;;;3.80;;
11151;SDS011;5630;49.342;10.802;2023-06-14T09:21:09;4.63;;;3.50;;
11151;SDS011;5630;49.342;10.802;2023-06-14T09:23:36;3.87;;;3.47;;
11151;SDS011;5630;49.342;10.802;2023-06-14T09:26:09;4.40;;;3.17;;
11151;SDS011;5630;49.342;10.802;2023-06-14T09:28:48;6.33;;;3.70;;
11151;SDS011;5630;49.342;10.802;2023-06-14T09:31:19;4.00;;;3.60;;
11151;SDS011;5630;49.342;10.802;2023-06-14T09:33:46;6.30;;;3.47;;
11151;SDS011;5630;49.342;10.802;2023-06-14T09:36:17;4.40;;;3.40;;
11151;SDS011;5630;49.342;10.802;2023-06-14T09:38:55;9.33;;;4.10;;
11151;SDS011;5630;49.342;10.802;2023-06-14T09:41:31;4.60;;;3.50;;
11151;SDS011;5630;49.342;10.802;2023-06-14T09:43:58;4.93;;;3.50;;
11151;SDS011;5630;49.342;10.802;2023-06-14T09:46:27;5.87;;;3.40;;
11151;SDS011;5630;49.342;10.802;2023-06-14T09:49:00;4.50;;;3.67;;
11151;SDS011;5630;49.342;10.802;2023-06-14T09:51:27;3.87;;;3.47;;
11151;SDS011;5630;49.342;10.802;2023-06-14T09:53:55;5.40;;;3.53;;
11151;SDS011;5630;49.342;10.802;2023-06-14T09:56:28;6.43;;;3.20;;
11151;SDS011;5630;49.342;10.802;2023-06-14T09:58:58;4.87;;;3.53;;
11151;SDS011;5630;49.342;10.802;2023-06-14T10:01:24;5.47;;;3.60;;
11151;SDS011;5630;49.342;10.802;2023-06-14T10:03:55;7.40;;;3.40;;
11151;SDS011;5630;49.342;10.802;2023-06-14T10:06:26;3.87;;;3.50;;
11151;SDS011;5630;49.342;10.802;2023-06-14T10:08:53;3.70;;;3.40;;
11151;SDS011;5630;49.342;10.802;2023-06-14T10:11:22;4.27;;;3.27;;
11151;SDS011;5630;49.342;10.802;2023-06-14T10:13:48;6.23;;;3.37;;
11151;SDS011;5630;49.342;10.802;2023-06-14T10:16:17;4.93;;;3.20;;
11151;SDS011;5630;49.342;10.802;2023-06-14T10:19:03;7.80;;;3.60;;
11151;SDS011;5630;49.342;10.802;2023-06-14T10:22:01;5.83;;;4.03;;
11151;SDS011;5630;49.342;10.802;2023-06-14T10:24:35;4.13;;;3.70;;
11151;SDS011;5630;49.342;10.802;2023-06-14T10:27:06;7.97;;;3.50;;
11151;SDS011;5630;49.342;10.802;2023-06-14T10:32:23;5.13;;;3.60;;
11151;SDS011;5630;49.342;10.802;2023-06-14T10:34:53;7.07;;;3.77;;
11151;SDS011;5630;49.342;10.802;2023-06-14T10:37:32;6.97;;;3.60;;
11151;SDS011;5630;49.342;10.802;2023-06-14T10:39:58;6.37;;;4.00;;
11151;SDS011;5630;49.342;10.802;2023-06-14T10:42:27;6.30;;;3.33;;
11151;SDS011;5630;49.342;10.802;2023-06-14T10:44:57;8.53;;;3.73;;
11151;SDS011;5630;49.342;10.802;2023-06-14T10:47:33;4.17;;;3.60;;
11151;SDS011;5630;49.342;10.802;2023-06-14T10:52:33;7.60;;;4.03;;
11151;SDS011;5630;49.342;10.802;2023-06-14T11:00:16;5.17;;;3.50;;
11151;SDS011;5630;49.342;10.802;2023-06-14T11:03:02;7.57;;;3.97;;
11151;SDS011;5630;49.342;10.802;2023-06-14T11:05:52;5.37;;;3.80;;
11151;SDS011;5630;49.342;10.802;2023-06-14T11:10:58;5.30;;;3.63;;
11151;SDS011;5630;49.342;10.802;2023-06-14T11:13:25;4.20;;;3.30;;
11151;SDS011;5630;49.342;10.802;2023-06-14T11:15:51;7.10;;;3.80;;
11151;SDS011;5630;49.342;10.802;2023-06-14T11:18:22;6.43;;;3.20;;
11151;SDS011;5630;49.342;10.802;2023-06-14T11:20:52;8.13;;;3.50;;
11151;SDS011;5630;49.342;10.802;2023-06-14T11:23:18;4.53;;;3.70;;
11151;SDS011;5630;49.342;10.802;2023-06-14T11:25:49;5.43;;;3.40;;
11151;SDS011;5630;49.342;10.802;2023-06-14T11:28:18;7.30;;;3.90;;
11151;SDS011;5630;49.342;10.802;2023-06-14T11:30:47;4.53;;;3.63;;
11151;SDS011;5630;49.342;10.802;2023-06-14T11:33:16;5.17;;;3.90;;
11151;SDS011;5630;49.342;10.802;2023-06-14T11:35:46;8.33;;;3.50;;
11151;SDS011;5630;49.342;10.802;2023-06-14T11:38:11;5.40;;;3.63;;
11151;SDS011;5630;49.342;10.802;2023-06-14T11:40:38;8.03;;;3.80;;
11151;SDS011;5630;49.342;10.802;2023-06-14T11:43:03;5.13;;;3.70;;
11151;SDS011;5630;49.342;10.802;2023-06-14T11:45:29;6.67;;;3.50;;
11151;SDS011;5630;49.342;10.802;2023-06-14T11:47:56;5.47;;;3.90;;
11151;SDS011;5630;49.342;10.802;2023-06-14T11:50:26;4.10;;;3.70;;
11151;SDS011;5630;49.342;10.802;2023-06-14T11:52:53;4.23;;;3.40;;
11151;SDS011;5630;49.342;10.802;2023-06-14T11:55:22;4.87;;;3.80;;
11151;SDS011;5630;49.342;10.802;2023-06-14T11:57:49;5.37;;;3.30;;
11151;SDS011;5630;49.342;10.802;2023-06-14T12:00:15;10.43;;;3.93;;
11151;SDS011;5630;49.342;10.802;2023-06-14T12:02:42;8.17;;;3.80;;
11151;SDS011;5630;49.342;10.802;2023-06-14T12:05:08;5.23;;;3.70;;
11151;SDS011;5630;49.342;10.802;2023-06-14T12:07:35;6.23;;;3.70;;
11151;SDS011;5630;49.342;10.802;2023-06-14T12:10:05;8.63;;;3.50;;
11151;SDS011;5630;49.342;10.802;2023-06-14T12:12:37;5.47;;;3.27;;
11151;SDS011;5630;49.342;10.802;2023-06-14T12:15:04;5.37;;;3.73;;
11151;SDS011;5630;49.342;10.802;2023-06-14T12:17:34;5.80;;;3.40;;
11151;SDS011;5630;49.342;10.802;2023-06-14T12:20:10;8.47;;;3.70;;
11151;SDS011;5630;49.342;10.802;2023-06-14T12:25:31;5.27;;;3.60;;
11151;SDS011;5630;49.342;10.802;2023-06-14T12:27:58;6.87;;;3.73;;
11151;SDS011;5630;49.342;10.802;2023-06-14T12:30:28;4.90;;;3.47;;
11151;SDS011;5630;49.342;10.802;2023-06-14T12:32:54;6.43;;;3.50;;
11151;SDS011;5630;49.342;10.802;2023-06-14T12:35:19;4.00;;;3.40;;
11151;SDS011;5630;49.342;10.802;2023-06-14T12:37:46;3.93;;;3.00;;
11151;SDS011;5630;49.342;10.802;2023-06-14T12:40:12;4.63;;;3.30;;
11151;SDS011;5630;49.342;10.802;2023-06-14T12:42:38;7.47;;;3.60;;
11151;SDS011;5630;49.342;10.802;2023-06-14T12:45:03;7.63;;;3.80;;
11151;SDS011;5630;49.342;10.802;2023-06-14T12:47:30;3.93;;;3.57;;
11151;SDS011;5630;49.342;10.802;2023-06-14T12:49:55;4.13;;;3.50;;
11151;SDS011;5630;49.342;10.802;2023-06-14T12:52:21;4.50;;;3.43;;
11151;SDS011;5630;49.342;10.802;2023-06-14T12:54:46;4.53;;;3.57;;
11151;SDS011;5630;49.342;10.802;2023-06-14T12:57:12;4.23;;;3.60;;
11151;SDS011;5630;49.342;10.802;2023-06-14T12:59:38;4.90;;;3.70;;
11151;SDS011;5630;49.342;10.802;2023-06-14T13:02:36;8.37;;;4.10;;
11151;SDS011;5630;49.342;10.802;2023-06-14T13:04:55;5.13;;;3.70;;
11151;SDS011;5630;49.342;10.802;2023-06-14T13:07:24;6.20;;;3.30;;
11151;SDS011;5630;49.342;10.802;2023-06-14T13:09:49;5.27;;;3.43;;
11151;SDS011;5630;49.342;10.802;2023-06-14T13:12:15;4.83;;;3.40;;
11151;SDS011;5630;49.342;10.802;2023-06-14T13:14:40;4.80;;;3.43;;
11151;SDS011;5630;49.342;10.802;2023-06-14T13:17:09;10.27;;;3.80;;
11151;SDS011;5630;49.342;10.802;2023-06-14T13:19:36;6.23;;;3.70;;
11151;SDS011;5630;49.342;10.802;2023-06-14T13:22:01;5.03;;;3.67;;
11151;SDS011;5630;49.342;10.802;2023-06-14T13:24:27;5.07;;;3.67;;
11151;SDS011;5630;49.342;10.802;2023-06-14T13:26:54;4.10;;;3.30;;
11151;SDS011;5630;49.342;10.802;2023-06-14T13:29:20;5.30;;;3.63;;
11151;SDS011;5630;49.342;10.802;2023-06-14T13:31:46;4.73;;;3.73;;
11151;SDS011;5630;49.342;10.802;2023-06-14T13:34:11;4.73;;;3.53;;
11151;SDS011;5630;49.342;10.802;2023-06-14T13:36:37;6.70;;;3.63;;
11151;SDS011;5630;49.342;10.802;2023-06-14T13:39:03;3.87;;;3.57;;
11151;SDS011;5630;49.342;10.802;2023-06-14T13:41:28;4.27;;;3.03;;
11151;SDS011;5630;49.342;10.802;2023-06-14T13:43:57;3.90;;;3.43;;
11151;SDS011;5630;49.342;10.802;2023-06-14T13:46:23;5.70;;;3.30;;
11151;SDS011;5630;49.342;10.802;2023-06-14T13:48:49;6.03;;;3.70;;
11151;SDS011;5630;49.342;10.802;2023-06-14T13:51:14;5.60;;;3.57;;
11151;SDS011;5630;49.342;10.802;2023-06-14T13:53:42;5.53;;;3.40;;
11151;SDS011;5630;49.342;10.802;2023-06-14T13:56:07;8.50;;;3.50;;
11151;SDS011;5630;49.342;10.802;2023-06-14T13:58:33;3.93;;;3.50;;
11151;SDS011;5630;49.342;10.802;2023-06-14T14:00:59;9.67;;;3.30;;
11151;SDS011;5630;49.342;10.802;2023-06-14T14:03:26;4.83;;;3.73;;
11151;SDS011;5630;49.342;10.802;2023-06-14T14:05:52;4.87;;;3.40;;
11151;SDS011;5630;49.342;10.802;2023-06-14T14:08:17;3.73;;;3.37;;
11151;SDS011;5630;49.342;10.802;2023-06-14T14:10:43;4.87;;;3.50;;
11151;SDS011;5630;49.342;10.802;2023-06-14T14:13:09;4.13;;;3.50;;
11151;SDS011;5630;49.342;10.802;2023-06-14T14:15:34;3.73;;;3.33;;
11151;SDS011;5630;49.342;10.802;2023-06-14T14:18:00;4.93;;;3.50;;
11151;SDS011;5630;49.342;10.802;2023-06-14T14:20:25;7.60;;;3.40;;
11151;SDS011;5630;49.342;10.802;2023-06-14T14:22:51;6.23;;;3.30;;
11151;SDS011;5630;49.342;10.802;2023-06-14T14:25:16;7.27;;;3.50;;
11151;SDS011;5630;49.342;10.802;2023-06-14T14:27:42;9.33;;;3.50;;
11151;SDS011;5630;49.342;10.802;2023-06-14T14:30:08;7.03;;;3.40;;
11151;SDS011;5630;49.342;10.802;2023-06-14T14:32:34;6.60;;;3.13;;
11151;SDS011;5630;49.342;10.802;2023-06-14T14:34:59;3.77;;;3.47;;
11151;SDS011;5630;49.342;10.802;2023-06-14T14:37:25;3.50;;;3.20;;
11151;SDS011;5630;49.342;10.802;2023-06-14T14:39:50;6.97;;;3.60;;
11151;SDS011;5630;49.342;10.802;2023-06-14T14:42:16;5.30;;;3.43;;
11151;SDS011;5630;49.342;10.802;2023-06-14T14:44:41;7.03;;;3.50;;
11151;SDS011;5630;49.342;10.802;2023-06-14T14:47:07;3.60;;;3.30;;
11151;SDS011;5630;49.342;10.802;2023-06-14T14:49:33;4.83;;;3.30;;
11151;SDS011;5630;49.342;10.802;2023-06-14T14:51:58;5.87;;;3.40;;
11151;SDS011;5630;49.342;10.802;2023-06-14T14:54:24;5.33;;;3.10;;
11151;SDS011;5630;49.342;10.802;2023-06-14T14:56:50;6.47;;;3.13;;
11151;SDS011;5630;49.342;10.802;2023-06-14T14:59:16;3.73;;;2.93;;
11151;SDS011;5630;49.342;10.802;2023-06-14T15:01:42;6.00;;;3.13;;
11151;SDS011;5630;49.342;10.802;2023-06-14T15:04:08;6.93;;;3.50;;
11151;SDS011;5630;49.342;10.802;2023-06-14T15:06:33;6.83;;;3.20;;
11151;SDS011;5630;49.342;10.802;2023-06-14T15:09:00;5.57;;;3.20;;